Cleveland, Ohio
Traffic Map
Current Weather Conditions
Cleveland, Ohio
Clear
Clear
46°
Feels Like: 38°
Wind Chill: 38° Ceiling: Unl
Heat Index: 46° Visibility: 10mi
Dew Point: 32° Wind: 20mph
Humidity: 58% Direction: 230° (SW)
Pressure: 29.66in Gusts: 29mph
Raw Report DataKBKL 210753Z 23017G25KT 10SM CLR 08/00 A2966 RMK AO2 PK WND 23032/0710 SLP043 T00780000
Traffic Incident Summary
Active as of:
Severity:
Category:
InformationThere was an issue retrieving the traffic information for this location. Please try a different location or try again shortly.
Advertisements
Track Severe Weather on mobile